Map

Track Data

SID SEASON NUMBER BASIN SUBBASIN NAME ISO_TIME NATURE LAT LON WMO_WIND WMO_PRES WMO_AGENCY TRACK_TYPE DIST2LAND LANDFALL IFLAG USA_AGENCY USA_ATCF_ID USA_LAT USA_LON USA_RECORD USA_STATUS USA_WIND USA_PRES USA_SSHS USA_R34_NE USA_R34_SE USA_R34_SW USA_R34_NW USA_R50_NE USA_R50_SE USA_R50_SW USA_R50_NW USA_R64_NE USA_R64_SE USA_R64_SW USA_R64_NW USA_POCI USA_ROCI USA_RMW USA_EYE TOKYO_LAT TOKYO_LON TOKYO_GRADE TOKYO_WIND TOKYO_PRES TOKYO_R50_DIR TOKYO_R50_LONG TOKYO_R50_SHORT TOKYO_R30_DIR TOKYO_R30_LONG TOKYO_R30_SHORT TOKYO_LAND CMA_LAT CMA_LON CMA_CAT CMA_WIND CMA_PRES HKO_LAT HKO_LON HKO_CAT HKO_WIND HKO_PRES NEWDELHI_LAT NEWDELHI_LON NEWDELHI_GRADE NEWDELHI_WIND NEWDELHI_PRES NEWDELHI_CI NEWDELHI_DP NEWDELHI_POCI REUNION_LAT REUNION_LON REUNION_TYPE REUNION_WIND REUNION_PRES REUNION_TNUM REUNION_CI REUNION_RMW REUNION_R34_NE REUNION_R34_SE REUNION_R34_SW REUNION_R34_NW REUNION_R50_NE REUNION_R50_SE REUNION_R50_SW REUNION_R50_NW REUNION_R64_NE REUNION_R64_SE REUNION_R64_SW REUNION_R64_NW BOM_LAT BOM_LON BOM_TYPE BOM_WIND BOM_PRES BOM_TNUM BOM_CI BOM_RMW BOM_R34_NE BOM_R34_SE BOM_R34_SW BOM_R34_NW BOM_R50_NE BOM_R50_SE BOM_R50_SW BOM_R50_NW BOM_R64_NE BOM_R64_SE BOM_R64_SW BOM_R64_NW BOM_ROCI BOM_POCI BOM_EYE BOM_POS_METHOD BOM_PRES_METHOD NADI_LAT NADI_LON NADI_CAT NADI_WIND NADI_PRES WELLINGTON_LAT WELLINGTON_LON WELLINGTON_WIND WELLINGTON_PRES DS824_LAT DS824_LON DS824_STAGE DS824_WIND DS824_PRES TD9636_LAT TD9636_LON TD9636_STAGE TD9636_WIND TD9636_PRES TD9635_LAT TD9635_LON TD9635_WIND TD9635_PRES TD9635_ROCI NEUMANN_LAT NEUMANN_LON NEUMANN_CLASS NEUMANN_WIND NEUMANN_PRES MLC_LAT MLC_LON MLC_CLASS MLC_WIND MLC_PRES USA_GUST BOM_GUST BOM_GUST_PER REUNION_GUST REUNION_GUST_PER USA_SEAHGT USA_SEARAD_NE USA_SEARAD_SE USA_SEARAD_SW USA_SEARAD_NW STORM_SPEED STORM_DIR
1987244N11177 1987 67 WP MM HOLLY 1987-09-01 06:00:00 NR 11.0000 177.000 main 2757 2757 O_________O___ jtwc_wp WP151987 11.0000 177.000 15 -1 11.0000 177.000 1 15 14 270
1987244N11177 1987 67 WP MM HOLLY 1987-09-01 09:00:00 NR 11.0004 176.277 main 2769 2722 P_________P___ WP151987 11.0004 176.277 15 -1 11.0005 176.276 1 15 14 270
1987244N11177 1987 67 WP MM HOLLY 1987-09-01 12:00:00 NR 11.0000 175.600 main 2722 2682 O_________O___ jtwc_wp WP151987 11.0000 175.600 15 -1 11.0000 175.600 1 15 12 270
1987244N11177 1987 67 WP MM HOLLY 1987-09-01 15:00:00 NR 10.9997 175.007 main 2682 2650 P_________P___ WP151987 10.9999 175.005 15 -1 10.9996 175.010 1 15 11 270
1987244N11177 1987 67 WP MM HOLLY 1987-09-01 18:00:00 NR 10.9998 174.502 main 2650 2625 O_________P___ jtwc_wp WP151987 11.0000 174.500 15 -1 10.9995 174.504 1 15 9 270
1987244N11177 1987 67 WP MM HOLLY 1987-09-01 21:00:00 NR 10.9998 174.070 main 2625 2601 P_________P___ WP151987 10.9999 174.070 15 -1 10.9997 174.071 1 15 8 270
1987244N11177 1987 67 WP MM HOLLY 1987-09-02 00:00:00 NR 11.0000 173.700 main 2601 2582 O_________O___ jtwc_wp WP151987 11.0000 173.700 15 -1 11.0000 173.700 1 15 7 270
1987244N11177 1987 67 WP MM HOLLY 1987-09-02 03:00:00 NR 10.9998 173.338 main 2576 2559 P_________P___ WP151987 11.0000 173.320 17 -1 10.9997 173.355 1 16 7 270
1987244N11177 1987 67 WP MM HOLLY 1987-09-02 06:00:00 NR 10.9998 173.034 main 2559 2547 O_________P___ jtwc_wp WP151987 11.0000 173.000 20 -1 10.9996 173.068 1 17 5 270
1987244N11177 1987 67 WP MM HOLLY 1987-09-02 09:00:00 NR 10.9998 172.799 main 2547 2536 P_________P___ WP151987 10.9999 172.778 20 -1 10.9998 172.821 1 18 4 270
1987244N11177 1987 67 WP MM HOLLY 1987-09-02 12:00:00 NR 11.0000 172.600 main 2536 2524 O_________O___ jtwc_wp WP151987 11.0000 172.600 20 -1 11.0000 172.600 1 20 4 270
1987244N11177 1987 67 WP MM HOLLY 1987-09-02 15:00:00 NR 10.9999 172.391 main 2524 2513 P_________P___ WP151987 11.0000 172.400 20 -1 10.9999 172.383 1 20 4 270
1987244N11177 1987 67 WP MM HOLLY 1987-09-02 18:00:00 NR 10.9999 172.193 main 2513 2502 O_________P___ jtwc_wp WP151987 11.0000 172.200 20 -1 10.9998 172.185 1 20 4 270
1987244N11177 1987 67 WP MM HOLLY 1987-09-02 21:00:00 NR 10.9999 172.001 main 2502 2491 P_________P___ WP151987 11.0000 172.008 20 -1 10.9999 171.995 1 20 4 270
1987244N11177 1987 67 WP MM HOLLY 1987-09-03 00:00:00 NR 11.0000 171.800 main 2491 2480 O_________O___ jtwc_wp WP151987 11.0000 171.800 20 -1 11.0000 171.800 1 20 4 269
1987244N11177 1987 67 WP MM HOLLY 1987-09-03 03:00:00 NR 10.9959 171.564 main 2480 2465 P_________P___ WP151987 11.0000 171.550 20 -1 10.9919 171.578 1 20 5 269
1987244N11177 1987 67 WP MM HOLLY 1987-09-03 06:00:00 NR 10.9925 171.325 main 2465 2454 O_________P___ jtwc_wp WP151987 11.0000 171.300 20 -1 10.9850 171.350 1 20 4 269
1987244N11177 1987 67 WP MM HOLLY 1987-09-03 09:00:00 NR 10.9890 171.107 main 2454 2444 P_________P___ WP151987 10.9925 171.092 20 -1 10.9856 171.122 1 20 4 271
1987244N11177 1987 67 WP MM HOLLY 1987-09-03 12:00:00 NR 11.0000 170.900 main 2444 2434 O_________O___ jtwc_wp WP151987 11.0000 170.900 20 -1 11.0000 170.900 1 20 4 276
1987244N11177 1987 67 WP MM HOLLY 1987-09-03 15:00:00 NR 11.0329 170.694 main 2434 2429 P_________P___ WP151987 11.0425 170.700 20 -1 11.0234 170.689 1 21 4 282
1987244N11177 1987 67 WP MM HOLLY 1987-09-03 18:00:00 NR 11.0812 170.492 main 2434 2424 O_________P___ jtwc_wp WP151987 11.1000 170.500 20 -1 11.0624 170.485 1 22 4 284
1987244N11177 1987 67 WP MM HOLLY 1987-09-03 21:00:00 NR 11.1314 170.294 main 2424 2420 P_________P___ WP151987 11.1425 170.300 22 -1 11.1203 170.289 1 23 4 287
1987244N11177 1987 67 WP MM HOLLY 1987-09-04 00:00:00 NR 11.2000 170.100 main 2425 2420 O_________O___ jtwc_wp WP151987 11.2000 170.100 25 -1 11.2000 170.100 1 25 4 293
1987244N11177 1987 67 WP MM HOLLY 1987-09-04 03:00:00 NR 11.2962 169.905 main 2426 2421 P_________P___ WP151987 11.2850 169.893 25 -1 11.3074 169.918 1 25 4 300
1987244N11177 1987 67 WP MM HOLLY 1987-09-04 06:00:00 NR 11.4175 169.721 main 2427 2427 O_________P___ jtwc_wp WP151987 11.4000 169.700 25 -1 11.4349 169.743 1 25 4 308
1987244N11177 1987 67 WP MM HOLLY 1987-09-04 09:00:00 NR 11.5600 169.557 main 2443 2439 P_________P___ WP151987 11.5500 169.542 25 -1 11.5700 169.571 1 25 4 312
1987244N11177 1987 67 WP MM HOLLY 1987-09-04 12:00:00 NR 11.7000 169.400 main 2444 2440 O_________O___ jtwc_wp WP151987 11.7000 169.400 25 -1 11.7000 169.400 1 25 4 310
1987244N11177 1987 67 WP MM HOLLY 1987-09-04 15:00:00 NR 11.8134 169.245 main 2446 2446 P_________P___ WP151987 11.8075 169.257 25 -1 11.8193 169.233 1 26 4 305
1987244N11177 1987 67 WP MM HOLLY 1987-09-04 18:00:00 NR 11.9149 169.082 main 2452 2448 O_________P___ jtwc_wp WP151987 11.9000 169.100 25 -1 11.9299 169.065 1 27 4 301
1987244N11177 1987 67 WP MM HOLLY 1987-09-04 21:00:00 NR 12.0165 168.898 main 2455 2455 P_________P___ WP151987 12.0075 168.908 27 -1 12.0255 168.889 1 28 1 298
1987244N11177 1987 67 WP MM HOLLY 1987-09-05 00:00:00 TS 11.9800 168.960 1008 tokyo main 2459 2455 OOO_______O___ jtwc_wp WP151987 12.1000 168.700 30 -1 11.5000 170.000 2 1008 0 0 0 11.5000 170.000 0 19 1004 12.1000 168.700 1 30 0 0
1987244N11177 1987 67 WP MM HOLLY 1987-09-05 03:00:00 TS 12.0054 168.899 main 2455 2451 PPP_______P___ WP151987 12.1650 168.507 30 -1 11.6601 169.560 2 1007 0 0 11.7575 169.783 0 19 1004 12.1423 168.518 1 31 2 293
1987244N11177 1987 67 WP MM HOLLY 1987-09-05 06:00:00 TS 12.0572 168.778 1006 tokyo main 2461 2449 OOOO______P___ jtwc_wp WP151987 12.2000 168.300 30 -1 11.8000 169.100 2 1006 0 0 0 12.0000 169.500 0 19 1004 12.0000 169.400 TD 25 1004 12.1647 168.317 1 32 4 288
1987244N11177 1987 67 WP MM HOLLY 1987-09-05 09:00:00 TS 12.1238 168.518 main 2449 2445 PPPP______P___ WP151987 12.1999 168.072 32 -1 11.9074 168.607 2 1005 0 0 12.2151 169.115 0 21 1002 12.1102 168.903 TD 27 1003 12.1797 168.083 1 33 6 283
1987244N11177 1987 67 WP MM HOLLY 1987-09-05 12:00:00 TS 12.2000 168.147 1004 tokyo main 2445 2438 OOOO______O___ jtwc_wp WP151987 12.2000 167.800 35 0 12.0000 168.100 2 1004 0 0 0 12.4000 168.700 1 23 1000 12.2000 168.400 TD 30 1002 12.2000 167.800 2 35 8 282
1987244N11177 1987 67 WP MM HOLLY 1987-09-05 15:00:00 TS 12.2865 167.762 main 2445 2423 PPPP______P___ WP151987 12.2424 167.480 40 0 12.1000 167.585 2 1002 0 0 12.6021 168.403 1 26 999 12.2574 167.892 TD 32 1001 12.2307 167.450 2 37 8 281
1987244N11177 1987 67 WP MM HOLLY 1987-09-05 18:00:00 TS 12.3540 167.330 35 1000 tokyo main 2426 2401 OOOO______P___ jtwc_wp WP151987 12.3000 167.100 45 0 12.2000 167.100 3 35 1000 0 9 50 50 0 12.7000 168.000 1 29 998 12.3000 167.400 TS 35 1000 12.2702 167.052 2 40 9 275
1987244N11177 1987 67 WP MM HOLLY 1987-09-05 21:00:00 TS 12.3719 166.845 main 2394 2366 PPPP______P___ WP151987 12.3426 166.650 45 0 12.2923 166.692 3 37 998 0 9 62 62 12.5577 167.309 1 29 998 12.3424 166.942 TS 37 998 12.3245 166.628 2 42 10 273
1987244N11177 1987 67 WP MM HOLLY 1987-09-06 00:00:00 TS 12.4000 166.340 40 996 tokyo main 2359 2338 OOOO______O___ jtwc_wp WP151987 12.4000 166.200 45 0 12.4000 166.300 3 40 996 0 9 75 75 0 12.4000 166.500 1 29 998 12.4000 166.500 TS 40 996 12.4000 166.200 2 45 10 277
1987244N11177 1987 67 WP MM HOLLY 1987-09-06 03:00:00 TS 12.4924 165.850 main 2333 2314 PPPP______P___ WP151987 12.4848 165.850 50 0 12.5425 165.857 3 42 995 0 9 75 75 12.4627 165.683 1 33 996 12.4849 166.057 TS 42 994 12.4870 165.800 2 50 10 283
1987244N11177 1987 67 WP MM HOLLY 1987-09-06 06:00:00 TS 12.6195 165.380 45 994 tokyo main 2314 2297 OOOO______P___ jtwc_wp WP151987 12.6000 165.500 55 0 12.7000 165.400 3 45 994 0 9 75 75 0 12.6000 165.000 2 38 995 12.6000 165.600 TS 45 992 12.5973 165.400 2 55 9 286
1987244N11177 1987 67 WP MM HOLLY 1987-09-06 09:00:00 TS 12.7477 164.948 main 2290 2285 PPPP______P___ WP151987 12.7350 165.065 60 0 12.8425 164.942 3 47 992 0 9 87 87 12.6846 164.632 2 43 992 12.7425 165.100 TS 50 988 12.7339 165.000 2 60 9 289
1987244N11177 1987 67 WP MM HOLLY 1987-09-06 12:00:00 TS 12.9000 164.540 50 990 tokyo main 2281 2270 OOOO______O___ jtwc_wp WP151987 12.9000 164.600 65 1 13.0000 164.500 4 50 990 0 9 100 100 0 12.8000 164.400 3 48 990 12.9000 164.600 STS 55 985 12.9000 164.600 3 65 9 293
1987244N11177 1987 67 WP MM HOLLY 1987-09-06 15:00:00 TS 13.0793 164.141 main 2272 2262 PPPP______P___ WP151987 13.0850 164.135 67 1 13.1999 164.100 4 52 987 0 9 100 100 12.9848 164.130 3 53 985 13.0349 164.142 STS 57 982 13.0920 164.200 3 68 9 296
1987244N11177 1987 67 WP MM HOLLY 1987-09-06 18:00:00 TS 13.2825 163.740 55 985 tokyo main 2264 2255 OOOO______P___ jtwc_wp WP151987 13.3000 163.700 70 1 13.4000 163.700 4 55 985 9 30 30 9 100 100 0 13.2000 163.800 3 58 980 13.2000 163.700 STS 60 980 13.3123 163.800 3 72 9 297
1987244N11177 1987 67 WP MM HOLLY 1987-09-06 21:00:00 TS 13.4943 163.307 main 2258 2249 PPPP______P___ WP151987 13.5424 163.342 75 1 13.5425 163.242 4 60 980 9 40 40 9 112 112 13.4001 163.315 3 63 975 13.4350 163.235 STS 65 975 13.5514 163.400 3 76 9 298
1987244N11177 1987 67 WP MM HOLLY 1987-09-07 00:00:00 TS 13.7200 162.880 65 975 tokyo main 2253 2247 OOOO______O___ jtwc_wp WP151987 13.8000 163.000 80 1 13.7000 162.800 5 65 975 9 50 50 9 125 125 0 13.6000 162.800 4 68 970 13.7000 162.800 T 70 970 13.8000 163.000 4 80 9 300
1987244N11177 1987 67 WP MM HOLLY 1987-09-07 03:00:00 TS 13.9510 162.490 main 2258 2246 PPPP______P___ WP151987 14.0500 162.607 85 2 13.9274 162.435 5 70 965 9 50 50 9 125 125 13.7849 162.370 4 72 965 13.9498 162.442 T 75 965 14.0427 162.596 4 85 9 303
1987244N11177 1987 67 WP MM HOLLY 1987-09-07 06:00:00 TS 14.1985 162.118 75 955 tokyo main 2254 2252 OOOO______P___ jtwc_wp WP151987 14.3000 162.200 90 2 14.2000 162.100 5 75 955 9 50 50 9 125 125 0 14.0000 162.000 4 77 960 14.2000 162.100 T 80 960 14.2923 162.192 4 90 9 306
1987244N11177 1987 67 WP MM HOLLY 1987-09-07 09:00:00 TS 14.4661 161.747 main 2260 2254 PPPP______P___ WP151987 14.5500 161.792 95 2 14.4999 161.750 5 80 947 9 62 62 9 150 150 14.2848 161.700 4 82 955 14.4500 161.700 T 87 955 14.5458 161.793 4 95 9 307
1987244N11177 1987 67 WP MM HOLLY 1987-09-07 12:00:00 TS 14.7400 161.380 85 940 tokyo main 2263 2262 OOOO______O___ jtwc_wp WP151987 14.8000 161.400 100 3 14.8000 161.400 5 85 940 9 75 75 9 175 175 0 14.6000 161.400 5 87 950 14.7000 161.300 ST 95 950 14.8000 161.400 4 100 9 307
1987244N11177 1987 67 WP MM HOLLY 1987-09-07 15:00:00 TS 14.9984 161.016 main 2272 2271 PPPP______P___ WP151987 15.0499 161.050 102 3 15.0499 161.057 5 87 935 9 77 77 9 175 175 14.9000 161.007 5 92 945 14.9424 160.950 ST 95 947 15.0498 161.018 4 102 9 306
1987244N11177 1987 67 WP MM HOLLY 1987-09-07 18:00:00 TS 15.2599 160.648 90 930 tokyo main 2282 2276 OOOO______P___ jtwc_wp WP151987 15.3000 160.700 105 3 15.3000 160.700 5 90 930 9 80 80 9 175 175 0 15.2000 160.600 5 97 940 15.2000 160.600 ST 95 945 15.2997 160.642 4 105 9 307
1987244N11177 1987 67 WP MM HOLLY 1987-09-07 21:00:00 TS 15.5384 160.266 main 2286 2286 PPPP______P___ WP151987 15.5500 160.300 107 3 15.6000 160.307 5 95 925 9 85 85 9 187 187 15.4999 160.250 5 97 935 15.4925 160.200 ST 97 942 15.5498 160.271 4 107 9 307
1987244N11177 1987 67 WP MM HOLLY 1987-09-08 00:00:00 TS 15.8200 159.880 100 920 tokyo main 2296 2296 OOOO______O___ jtwc_wp WP151987 15.8000 159.900 110 3 15.9000 159.900 5 100 920 9 90 90 9 200 200 0 15.8000 159.900 5 97 930 15.8000 159.800 SuperT 100 940 15.8000 159.900 4 110 9 307
1987244N11177 1987 67 WP MM HOLLY 1987-09-08 03:00:00 TS 16.0914 159.507 main 2308 2304 PPPP______P___ WP151987 16.0499 159.550 112 3 16.1574 159.500 5 100 915 9 90 90 9 200 200 16.1000 159.507 5 101 925 16.0999 159.450 SuperT 102 937 16.0498 159.529 4 111 9 307
1987244N11177 1987 67 WP MM HOLLY 1987-09-08 06:00:00 TS 16.3599 159.131 100 910 tokyo main 2321 2317 OOOO______P___ jtwc_wp WP151987 16.3000 159.200 115 4 16.4000 159.100 5 100 910 9 90 90 9 200 200 0 16.4000 159.100 6 106 920 16.4000 159.100 SuperT 105 935 16.2997 159.157 4 112 9 306
1987244N11177 1987 67 WP MM HOLLY 1987-09-08 09:00:00 TS 16.6374 158.736 main 2325 2325 PPPP______P___ WP151987 16.5500 158.807 115 4 16.6500 158.685 5 105 907 9 95 95 9 212 212 16.7224 158.708 6 106 920 16.7150 158.700 SuperT 107 932 16.5497 158.782 4 113 9 305
1987244N11177 1987 67 WP MM HOLLY 1987-09-08 12:00:00 TS 16.9000 158.340 110 905 tokyo main 2341 2341 OOOO______O___ jtwc_wp WP151987 16.8000 158.400 115 4 16.9000 158.300 5 110 905 9 100 100 9 225 225 0 17.0000 158.300 6 106 920 17.0000 158.300 SuperT 110 930 16.8000 158.400 4 115 9 304
1987244N11177 1987 67 WP MM HOLLY 1987-09-08 15:00:00 TS 17.1321 157.957 main 2350 2347 PPPP______P___ WP151987 17.0499 158.000 117 4 17.1647 158.015 5 110 902 9 100 100 9 225 225 17.1651 157.835 6 106 920 17.2223 157.957 SuperT 112 927 17.0583 157.979 4 117 9 301
1987244N11177 1987 67 WP MM HOLLY 1987-09-08 18:00:00 TS 17.3431 157.571 110 900 tokyo main 2357 2357 OOOO______P___ jtwc_wp WP151987 17.3000 157.600 120 4 17.4000 157.700 5 110 900 9 100 100 9 225 225 0 17.3000 157.400 6 106 920 17.4000 157.600 SuperT 115 925 17.3153 157.555 4 120 9 298
1987244N11177 1987 67 WP MM HOLLY 1987-09-08 21:00:00 TS 17.5475 157.150 main 2365 2365 PPPP______P___ WP151987 17.5500 157.185 122 4 17.5578 157.200 5 110 900 9 100 100 9 225 225 17.4998 157.077 6 106 915 17.5652 157.135 SuperT 117 922 17.5646 157.154 4 122 9 297
1987244N11177 1987 67 WP MM HOLLY 1987-09-09 00:00:00 TS 17.7400 156.760 110 900 tokyo main 2374 2374 OOOO______O___ jtwc_wp WP151987 17.8000 156.800 125 4 17.7000 156.700 5 110 900 9 100 100 9 225 225 0 17.7000 156.800 6 106 910 17.7000 156.700 SuperT 120 920 17.8000 156.800 4 125 8 299
1987244N11177 1987 67 WP MM HOLLY 1987-09-09 03:00:00 TS 17.9257 156.444 main 2384 2384 PPPP______P___ WP151987 18.0650 156.463 130 4 17.8998 156.355 5 110 900 9 100 100 9 225 225 17.8575 156.485 6 111 907 17.7923 156.420 SuperT 122 917 18.0141 156.500 4 128 7 304
1987244N11177 1987 67 WP MM HOLLY 1987-09-09 06:00:00 TS 18.1029 156.190 110 900 tokyo main 2401 2398 OOOO______P___ jtwc_wp WP151987 18.3000 156.200 135 4 18.1000 156.100 5 110 900 9 100 100 9 225 225 0 18.0000 156.200 6 116 905 17.9000 156.200 SuperT 125 915 18.2146 156.252 4 132 6 307
1987244N11177 1987 67 WP MM HOLLY 1987-09-09 09:00:00 TS 18.2686 155.967 main 2417 2412 PPPP______P___ WP151987 18.4649 156.012 137 5 18.2500 155.870 5 110 900 9 100 100 9 225 225 18.1425 155.970 6 116 905 18.0775 155.928 SuperT 127 910 18.4079 156.053 4 136 5 312
1987244N11177 1987 67 WP MM HOLLY 1987-09-09 12:00:00 TS 18.4400 155.800 110 900 tokyo main 2412 2387 OOOO______O___ jtwc_wp WP151987 18.6000 155.900 140 5 18.4000 155.700 5 110 900 9 100 100 9 225 225 0 18.3000 155.800 6 116 905 18.3000 155.700 SuperT 130 905 18.6000 155.900 4 140 4 323
1987244N11177 1987 67 WP MM HOLLY 1987-09-09 15:00:00 TS 18.6225 155.690 main 2387 2363 PPPP______P___ WP151987 18.7350 155.842 140 5 18.5775 155.570 5 110 900 9 100 100 9 225 225 18.4774 155.692 6 121 902 18.5349 155.570 SuperT 130 905 18.7877 155.773 4 138 4 336
1987244N11177 1987 67 WP MM HOLLY 1987-09-09 18:00:00 TS 18.8355 155.618 110 900 tokyo main 2363 2330 OOOO______P___ jtwc_wp WP151987 18.9000 155.800 140 5 18.8000 155.500 5 110 900 9 100 100 9 225 225 0 18.7000 155.600 6 126 900 18.8000 155.500 SuperT 130 905 18.9773 155.690 4 137 5 343
1987244N11177 1987 67 WP MM HOLLY 1987-09-09 21:00:00 TS 19.0922 155.541 main 2330 2303 PPPP______P___ WP151987 19.1350 155.700 137 5 19.0775 155.492 5 110 900 9 100 100 9 237 237 18.9775 155.443 6 126 900 19.0925 155.435 SuperT 130 905 19.1783 155.636 4 136 6 347
1987244N11177 1987 67 WP MM HOLLY 1987-09-10 00:00:00 TS 19.3800 155.480 110 900 tokyo main 2303 2270 OOOO______O___ jtwc_wp WP151987 19.4000 155.600 135 4 19.4000 155.500 5 110 900 9 100 100 9 250 250 0 19.3000 155.300 6 126 900 19.4000 155.400 SuperT 130 905 19.4000 155.600 4 135 6 349
1987244N11177 1987 67 WP MM HOLLY 1987-09-10 03:00:00 TS 19.6759 155.422 main 2270 2243 PPPP______P___ WP151987 19.6425 155.535 132 4 19.7500 155.443 5 107 905 9 100 100 9 250 250 19.6500 155.205 6 121 902 19.7000 155.385 SuperT 127 907 19.6372 155.545 4 132 6 352
1987244N11177 1987 67 WP MM HOLLY 1987-09-10 06:00:00 TS 19.9795 155.401 105 910 tokyo main 2243 2217 OOOO______P___ jtwc_wp WP151987 19.9000 155.500 130 4 20.1000 155.400 5 105 910 9 100 100 9 250 250 0 20.0000 155.200 6 116 905 20.0000 155.400 SuperT 125 910 19.8975 155.505 4 130 6 0
1987244N11177 1987 67 WP MM HOLLY 1987-09-10 09:00:00 TS 20.2723 155.430 main 2217 2197 PPPP______P___ WP151987 20.1850 155.485 127 4 20.4000 155.420 5 102 912 9 125 125 9 375 275 20.3000 155.327 6 116 905 20.2925 155.428 SuperT 122 912 20.1840 155.488 4 127 6 9
1987244N11177 1987 67 WP MM HOLLY 1987-09-10 12:00:00 TS 20.5800 155.500 100 915 tokyo main 2197 2178 OOOO______O___ jtwc_wp WP151987 20.5000 155.500 125 4 20.7000 155.500 5 100 915 9 150 150 4 500 300 0 20.6000 155.500 6 116 905 20.6000 155.500 SuperT 120 915 20.5000 155.500 4 125 7 14
1987244N11177 1987 67 WP MM HOLLY 1987-09-10 15:00:00 TS 20.9147 155.601 main 2178 2150 PPPP______P___ WP151987 20.8350 155.535 125 4 21.0350 155.650 5 100 917 9 150 150 4 500 300 20.9425 155.622 6 116 907 20.9351 155.650 SuperT 117 917 20.8260 155.550 4 123 7 16
1987244N11177 1987 67 WP MM HOLLY 1987-09-10 18:00:00 TS 21.2765 155.705 100 920 tokyo main 2150 2131 OOOO______P___ jtwc_wp WP151987 21.2000 155.600 125 4 21.4000 155.800 5 100 920 9 150 150 4 500 300 0 21.3000 155.700 6 116 910 21.3000 155.800 SuperT 115 920 21.1826 155.627 4 122 8 12
1987244N11177 1987 67 WP MM HOLLY 1987-09-10 21:00:00 TS 21.6466 155.771 main 2131 2098 PPPP______P___ WP151987 21.5700 155.693 122 4 21.7850 155.873 5 95 922 9 137 137 4 450 350 21.6275 155.708 6 111 912 21.6775 155.865 SuperT 112 922 21.5729 155.716 4 121 8 8
1987244N11177 1987 67 WP MM HOLLY 1987-09-11 00:00:00 TS 22.0600 155.820 90 925 tokyo main 2090 2064 OOOO______O___ jtwc_wp WP151987 22.0000 155.800 120 4 22.2000 155.900 5 90 925 9 125 125 9 400 400 0 22.0000 155.700 6 106 915 22.1000 155.900 SuperT 110 925 22.0000 155.800 4 120 9 7
1987244N11177 1987 67 WP MM HOLLY 1987-09-11 03:00:00 TS 22.5411 155.886 main 2064 2023 PPPP______P___ WP151987 22.5425 155.915 117 4 22.6275 155.915 5 90 925 9 125 125 9 400 400 22.4775 155.742 6 101 917 22.5775 155.965 SuperT 107 927 22.4803 155.893 4 117 10 6
1987244N11177 1987 67 WP MM HOLLY 1987-09-11 06:00:00 TS 23.0585 155.935 90 925 tokyo main 2015 1981 OOOO______P___ jtwc_wp WP151987 23.1000 156.000 115 4 23.1000 155.900 5 90 925 9 125 125 9 400 400 0 23.0000 155.800 5 97 920 23.1000 156.000 SuperT 105 930 22.9924 155.974 4 115 10 4
1987244N11177 1987 67 WP MM HOLLY 1987-09-11 09:00:00 TS 23.5791 155.957 main 1981 1934 PPPP______P___ WP151987 23.5725 156.037 112 3 23.6500 155.880 5 90 927 9 125 125 9 400 400 23.5000 155.865 5 97 920 23.6650 155.987 SuperT 102 932 23.5083 156.018 4 112 10 359
1987244N11177 1987 67 WP MM HOLLY 1987-09-11 12:00:00 TS 24.0800 155.920 90 930 tokyo main 1934 1895 OOOO______O___ jtwc_wp WP151987 24.0000 156.000 110 3 24.2000 155.800 5 90 930 9 125 125 9 400 400 0 24.0000 155.900 5 97 920 24.2000 155.900 SuperT 100 935 24.0000 156.000 4 110 10 351
1987244N11177 1987 67 WP MM HOLLY 1987-09-11 15:00:00 TS 24.5493 155.794 main 1895 1850 PPPP______P___ WP151987 24.4075 155.880 105 3 24.7026 155.608 5 90 930 9 125 125 9 400 400 24.5374 155.902 5 97 922 24.6376 155.715 SuperT 97 937 24.4615 155.867 4 105 9 342
1987244N11177 1987 67 WP MM HOLLY 1987-09-11 18:00:00 TS 24.9581 155.615 90 930 tokyo main 1842 1804 OOOO______P___ jtwc_wp WP151987 24.8000 155.700 100 3 25.1000 155.400 5 90 930 9 125 125 9 400 400 0 25.0000 155.800 5 97 925 25.0000 155.500 ST 95 940 24.8903 155.674 4 100 8 335
1987244N11177 1987 67 WP MM HOLLY 1987-09-11 21:00:00 TS 25.2888 155.415 main 1804 1774 PPPP______P___ WP151987 25.2301 155.485 95 2 25.3300 155.277 5 87 932 9 125 125 9 425 425 25.2802 155.508 5 92 927 25.3300 155.335 ST 92 942 25.2740 155.470 4 95 7 331
1987244N11177 1987 67 WP MM HOLLY 1987-09-12 00:00:00 TS 25.5600 155.240 85 935 tokyo main 1767 1744 OOOO______O___ jtwc_wp WP151987 25.6000 155.300 90 2 25.5000 155.200 5 85 935 9 125 125 9 450 450 0 25.5000 155.200 5 87 930 25.6000 155.200 ST 90 945 25.6000 155.300 4 90 6 335
1987244N11177 1987 67 WP MM HOLLY 1987-09-12 03:00:00 TS 25.8174 155.137 main 1744 1729 PPPP______P___ WP151987 25.8299 155.220 85 2 25.7575 155.128 5 82 937 9 125 125 9 450 450 25.8149 155.047 5 82 937 25.8150 155.077 ST 87 947 25.8695 155.211 4 85 5 345
1987244N11177 1987 67 WP MM HOLLY 1987-09-12 06:00:00 TS 26.0365 155.093 80 940 tokyo main 1729 1714 OOOO______P___ jtwc_wp WP151987 26.0000 155.200 80 1 26.0000 155.100 5 80 940 9 125 125 9 450 450 0 26.1000 155.000 4 77 945 26.0000 155.000 ST 85 950 26.0823 155.167 4 80 4 355
1987244N11177 1987 67 WP MM HOLLY 1987-09-12 09:00:00 TS 26.2213 155.095 main 1714 1699 PPPP______P___ WP151987 26.2075 155.178 75 1 26.1725 155.127 5 80 945 9 112 112 9 425 425 26.2650 155.027 4 77 947 26.2075 154.977 ST 85 950 26.2539 155.164 4 75 3 5
1987244N11177 1987 67 WP MM HOLLY 1987-09-12 12:00:00 TS 26.3800 155.140 80 950 tokyo main 1699 1699 OOOO______O___ jtwc_wp WP151987 26.4000 155.200 70 1 26.3000 155.200 5 80 950 9 100 100 9 400 400 0 26.4000 155.100 4 77 950 26.4000 155.000 ST 85 950 26.4000 155.200 4 70 3 16
1987244N11177 1987 67 WP MM HOLLY 1987-09-12 15:00:00 TS 26.5353 155.197 main 1700 1692 PPPP______P___ WP151987 26.5650 155.285 67 1 26.4000 155.285 5 80 952 9 100 100 9 400 400 26.6000 155.143 4 72 952 26.5650 155.028 ST 82 952 26.5465 155.244 4 68 3 24
1987244N11177 1987 67 WP MM HOLLY 1987-09-12 18:00:00 TS 26.6745 155.285 80 955 tokyo main 1693 1686 OOOO______P___ jtwc_wp WP151987 26.7000 155.400 65 1 26.5000 155.400 5 80 955 9 100 100 9 400 400 0 26.8000 155.200 4 68 955 26.7000 155.100 T 80 955 26.6723 155.325 4 67 3 30
1987244N11177 1987 67 WP MM HOLLY 1987-09-12 21:00:00 TS 26.8048 155.376 main 1693 1686 PPPP______P___ WP151987 26.7999 155.485 65 1 26.6499 155.513 5 77 957 9 100 100 9 400 400 26.9723 155.248 4 68 955 26.8148 155.190 T 77 957 26.7870 155.444 4 66 3 43
1987244N11177 1987 67 WP MM HOLLY 1987-09-13 00:00:00 TS 26.9200 155.540 75 960 tokyo main 1694 1694 OOOO______O___ jtwc_wp WP151987 26.9000 155.600 65 1 26.8000 155.700 5 75 960 9 100 100 9 400 400 0 27.1000 155.400 4 68 955 26.9000 155.400 T 75 960 26.9000 155.600 4 65 5 62
1987244N11177 1987 67 WP MM HOLLY 1987-09-13 03:00:00 TS 27.0188 155.827 main 1710 1710 PPPP______P___ WP151987 27.0500 155.777 65 1 26.9151 156.020 5 75 960 9 100 100 9 400 400 27.1502 155.755 4 68 957 26.9576 155.798 T 75 960 27.0210 155.785 4 62 6 72
1987244N11177 1987 67 WP MM HOLLY 1987-09-13 06:00:00 TS 27.1085 156.181 75 960 tokyo main 1735 1735 OOOO______P___ jtwc_wp WP151987 27.2000 156.000 65 1 27.0000 156.400 5 75 960 9 100 100 9 400 400 0 27.2000 156.200 4 68 960 27.0000 156.300 T 75 960 27.1426 156.005 4 60 6 74
1987244N11177 1987 67 WP MM HOLLY 1987-09-13 09:00:00 TS 27.1930 156.530 main 1751 1751 PPPP______P___ WP151987 27.2999 156.235 60 0 27.0424 156.743 5 75 960 9 100 100 9 400 400 27.3350 156.615 4 68 960 27.0201 156.808 T 72 962 27.2678 156.248 4 57 7 73
1987244N11177 1987 67 WP MM HOLLY 1987-09-13 12:00:00 TS 27.3000 156.880 75 960 tokyo main 1777 1777 OOOO______O___ jtwc_wp WP151987 27.4000 156.500 55 0 27.1000 157.100 5 75 960 9 100 100 9 400 400 0 27.5000 157.000 4 68 960 27.1000 157.300 T 70 965 27.4000 156.500 2 55 7 67
1987244N11177 1987 67 WP MM HOLLY 1987-09-13 15:00:00 TS 27.4581 157.229 main 1788 1788 PPPP______P___ WP151987 27.5426 156.807 52 0 27.2201 157.515 5 75 960 9 100 100 9 400 400 27.6573 157.315 4 63 962 27.3275 157.752 T 67 967 27.5429 156.755 2 52 7 60
1987244N11177 1987 67 WP MM HOLLY 1987-09-13 18:00:00 TS 27.6385 157.543 75 960 tokyo main 1806 1806 OOOO______P___ jtwc_wp WP151987 27.7000 157.100 50 0 27.4000 157.900 5 75 960 9 100 100 9 400 400 0 27.8000 157.600 3 58 965 27.6000 158.100 T 65 970 27.6926 157.015 2 50 6 55
1987244N11177 1987 67 WP MM HOLLY 1987-09-13 21:00:00 TS 27.8076 157.799 main 1818 1818 PPPP______P___ WP151987 27.8499 157.315 47 0 27.6424 158.195 5 67 962 9 80 80 9 425 350 27.8926 157.930 3 58 967 27.8073 158.288 T 62 972 27.8460 157.267 2 47 5 50
1987244N11177 1987 67 WP MM HOLLY 1987-09-14 00:00:00 TS 27.9800 158.000 60 965 tokyo main 1823 1823 OOOO______O___ jtwc_wp WP151987 28.0000 157.500 45 0 27.9000 158.400 4 60 965 9 60 60 8 450 300 0 28.0000 158.200 3 58 970 28.0000 158.400 STS 60 975 28.0000 157.500 2 45 5 43
1987244N11177 1987 67 WP MM HOLLY 1987-09-14 03:00:00 TS 28.1614 158.171 main 1827 1821 PPPP______P___ WP151987 28.1500 157.708 45 0 28.1224 158.530 4 57 967 9 55 55 8 425 300 28.1849 158.338 3 58 975 28.2000 158.565 STS 57 977 28.1499 157.713 2 42 4 36
1987244N11177 1987 67 WP MM HOLLY 1987-09-14 06:00:00 TS 28.3400 158.301 55 970 tokyo main 1830 1824 OOOO______P___ jtwc_wp WP151987 28.3000 157.900 45 0 28.3000 158.600 4 55 970 9 50 50 8 400 300 0 28.4000 158.400 3 58 980 28.4000 158.700 STS 55 980 28.2999 157.903 2 40 4 31
1987244N11177 1987 67 WP MM HOLLY 1987-09-14 09:00:00 TS 28.5090 158.405 main 1827 1821 PPPP______P___ WP151987 28.4500 158.073 40 0 28.4150 158.658 4 52 970 9 8 375 275 28.6150 158.458 3 53 980 28.6150 158.773 STS 50 982 28.4499 158.066 2 37 4 26
1987244N11177 1987 67 WP MM HOLLY 1987-09-14 12:00:00 TS 28.6600 158.480 50 970 tokyo main 1824 1818 OOOO______O___ jtwc_wp WP151987 28.6000 158.200 35 0 28.5000 158.700 4 50 970 0 8 350 250 0 28.8000 158.500 3 48 980 28.8000 158.800 TS 45 985 28.6000 158.200 2 35 3 22
1987244N11177 1987 67 WP MM HOLLY 1987-09-14 15:00:00 TS 28.7830 158.534 main 1818 1818 PPPP______P___ WP151987 28.7500 158.258 32 -1 28.5850 158.750 4 50 972 0 8 350 250 28.9150 158.543 3 48 982 28.9150 158.808 TS 45 985 28.7499 158.312 2 33 3 21
1987244N11177 1987 67 WP MM HOLLY 1987-09-14 18:00:00 TS 28.9000 158.579 50 975 tokyo main 1821 1816 OOOO______P___ jtwc_wp WP151987 28.9000 158.300 30 -1 28.7000 158.800 4 50 975 0 8 350 250 0 29.0000 158.600 3 48 985 29.0000 158.800 TS 45 985 28.8999 158.395 2 32 3 20
1987244N11177 1987 67 WP MM HOLLY 1987-09-14 21:00:00 TS 29.0400 158.649 main 1816 1814 PPPP______P___ WP151987 29.0500 158.407 30 -1 28.9000 158.865 4 50 975 0 8 350 250 29.1000 158.715 3 48 985 29.1000 158.800 TS 45 985 29.0499 158.456 2 31 3 20
1987244N11177 1987 67 WP MM HOLLY 1987-09-15 00:00:00 TS 29.1800 158.700 50 975 tokyo main 1814 1809 OOOO______O___ jtwc_wp WP151987 29.2000 158.500 30 -1 29.1000 158.900 4 50 975 0 8 350 250 0 29.2000 158.800 3 48 985 29.2000 158.800 TS 45 985 29.2000 158.500 1 30 3 7
1987244N11177 1987 67 WP MM HOLLY 1987-09-15 03:00:00 TS 29.3037 158.702 main 1809 1803 PPPP______P___ WP151987 29.3500 158.508 30 -1 29.2150 158.873 4 55 977 0 8 350 275 29.3000 158.788 3 48 985 29.2925 158.807 TS 45 985 29.3610 158.533 1 30 2 0
1987244N11177 1987 67 WP MM HOLLY 1987-09-15 06:00:00 TS 29.4241 158.671 60 980 tokyo main 1803 1790 OOOO______P___ jtwc_wp WP151987 29.5000 158.500 30 -1 29.3000 158.800 4 60 980 9 60 60 8 350 300 0 29.4000 158.700 3 48 985 29.4000 158.800 TS 45 985 29.5204 158.554 1 30 3 345
1987244N11177 1987 67 WP MM HOLLY 1987-09-15 09:00:00 TS 29.5509 158.629 main 1785 1780 PPPP______P___ WP151987 29.6575 158.542 30 -1 29.3925 158.707 4 57 982 9 60 60 8 350 300 29.4850 158.557 3 48 985 29.5500 158.765 TS 45 985 29.6696 158.572 1 30 3 341
1987244N11177 1987 67 WP MM HOLLY 1987-09-15 12:00:00 TS 29.6667 158.578 55 985 tokyo main 1780 1766 OOOO______O___ jtwc_wp WP151987 29.8000 158.600 30 -1 29.5000 158.600 4 55 985 9 60 60 8 350 300 0 29.6000 158.400 3 48 985 29.7000 158.700 TS 45 985 29.8000 158.600 1 30 3 336
1987244N11177 1987 67 WP MM HOLLY 1987-09-15 15:00:00 TS 29.7877 158.507 main 1766 1752 PPPP______P___ WP151987 29.9100 158.653 27 -1 29.6425 158.493 4 52 985 9 8 350 300 29.8000 158.278 3 48 985 29.8000 158.607 TS 45 985 29.9068 158.645 1 27 3 330
1987244N11177 1987 67 WP MM HOLLY 1987-09-15 18:00:00 TS 29.9143 158.414 50 985 tokyo main 1752 1739 OOOO______O___ jtwc_wp WP151987 30.0000 158.700 25 -1 29.8000 158.400 4 50 985 0 8 350 300 0 30.0000 158.200 3 48 985 29.9000 158.500 TS 45 985 30.0000 158.700 1 25 3 325
1987244N11177 1987 67 WP MM HOLLY 1987-09-15 21:00:00 TS 30.0358 158.304 main 1739 1729 _PPP__________ WP151987 -1 29.9500 158.342 4 47 987 0 8 300 275 30.1150 158.177 3 43 987 30.0425 158.393 TS 42 986 1 3 333
1987244N11177 1987 67 WP MM HOLLY 1987-09-16 00:00:00 TS 30.1667 158.267 45 990 tokyo main 1729 1716 _OOO__________ -1 30.1000 158.300 3 45 990 0 9 250 250 0 30.2000 158.200 2 38 990 30.2000 158.300 TS 40 988 3 348
1987244N11177 1987 67 WP MM HOLLY 1987-09-16 03:00:00 TS 30.2900 158.242 main 1716 1711 _PPP__________ -1 30.2350 158.250 3 45 990 0 9 250 250 30.2850 158.235 2 38 990 30.3500 158.242 TS 40 988 3 354
1987244N11177 1987 67 WP MM HOLLY 1987-09-16 06:00:00 TS 30.4333 158.233 45 990 tokyo main 1711 1702 _OOO__________ -1 30.4000 158.200 3 45 990 0 9 250 250 0 30.4000 158.300 2 38 990 30.5000 158.200 TS 40 988 3 352
1987244N11177 1987 67 WP MM HOLLY 1987-09-16 09:00:00 TS 30.6108 158.206 main 1702 1693 _PPP__________ -1 30.6125 158.120 3 45 990 0 9 250 250 30.5774 158.363 2 33 992 30.6425 158.135 TS 40 988 4 0
1987244N11177 1987 67 WP MM HOLLY 1987-09-16 12:00:00 TS 30.8333 158.233 45 990 tokyo main 1693 1688 _OOO__________ -1 30.9000 158.100 3 45 990 0 9 250 250 0 30.8000 158.500 1 29 994 30.8000 158.100 TS 40 988 5 14
1987244N11177 1987 67 WP MM HOLLY 1987-09-16 15:00:00 TS 31.0816 158.345 main 1688 1688 _PPP__________ -1 31.2922 158.168 3 45 990 0 9 250 250 31.0052 158.785 1 29 994 30.9473 158.083 TS 40 988 6 27
1987244N11177 1987 67 WP MM HOLLY 1987-09-16 18:00:00 TS 31.4000 158.567 45 990 tokyo main 1702 1698 _OOO__________ -1 31.7000 158.400 3 45 990 0 9 250 250 0 31.3000 159.100 1 29 994 31.2000 158.200 TS 40 988 9 35
1987244N11177 1987 67 WP MM HOLLY 1987-09-16 21:00:00 TS 31.7961 158.923 main 1714 1699 _PPP__________ -1 31.9782 158.892 3 42 991 0 9 225 225 31.7549 159.323 1 29 995 31.6553 158.554 TS 37 989 11 36
1987244N11177 1987 67 WP MM HOLLY 1987-09-17 00:00:00 TS 32.2667 159.300 40 992 tokyo main 1693 1662 _OOO__________ -1 32.3000 159.400 3 40 992 0 9 200 200 0 32.3000 159.500 1 29 996 32.2000 159.000 TS 35 990 11 29
1987244N11177 1987 67 WP MM HOLLY 1987-09-17 03:00:00 TS 32.7724 159.571 main 1656 1616 _PPP__________ -1 32.7822 159.660 3 40 992 0 9 200 200 32.8425 159.665 1 29 996 32.6925 159.388 TS 35 990 12 20
1987244N11177 1987 67 WP MM HOLLY 1987-09-17 06:00:00 TS 33.3455 159.773 40 992 tokyo main 1616 1562 _OOO__________ -1 33.4000 159.800 3 40 992 0 9 200 200 0 33.4000 159.800 1 29 996 33.2000 159.700 TS 35 990 12 13
1987244N11177 1987 67 WP MM HOLLY 1987-09-17 09:00:00 TS 33.9460 159.907 main 1562 1501 _PPP__________ -1 34.1125 159.915 3 37 992 0 9 200 200 33.8825 159.908 1 29 996 33.7399 159.887 TS 32 991 13 8
1987244N11177 1987 67 WP MM HOLLY 1987-09-17 12:00:00 TS 34.6556 160.000 35 992 tokyo main 1491 1422 _OOO__________ -1 34.9000 160.000 3 35 992 0 9 200 200 0 34.5000 160.000 1 29 996 34.3000 160.000 TD 30 992 16 5
1987244N11177 1987 67 WP MM HOLLY 1987-09-17 15:00:00 TS 35.5474 160.064 main 1422 1346 _PP___________ -1 35.6624 160.071 3 993 0 9 35.4323 160.057 1 29 996 TD 19 5
1987244N11177 1987 67 WP MM HOLLY 1987-09-17 18:00:00 MX 36.5000 160.200 994 tokyo main 1337 1273 _OO___________ -1 36.5000 160.200 6 994 0 0 0 36.5000 160.200 1 29 996 19 11
1987244N11177 1987 67 WP MM HOLLY 1987-09-17 21:00:00 MX 37.4476 160.502 main 1273 1211 _PP___________ -1 37.4322 160.427 6 994 0 0 37.4629 160.576 1 29 996 21 16
1987244N11177 1987 67 WP MM HOLLY 1987-09-18 00:00:00 MX 38.5000 160.900 994 tokyo main 1202 1141 _OO___________ -1 38.5000 160.800 6 994 0 0 0 38.5000 161.000 1 29 996 24 16
1987244N11177 1987 67 WP MM HOLLY 1987-09-18 03:00:00 MX 39.7053 161.319 main 1133 1074 _PP___________ -1 39.7109 161.344 6 995 0 0 39.6997 161.295 1 26 997 26 15
1987244N11177 1987 67 WP MM HOLLY 1987-09-18 06:00:00 MX 41.0000 161.750 996 tokyo main 1075 _OO___________ -1 41.0000 162.000 6 996 0 0 0 41.0000 161.500 1 23 998 27 14

Digital Typhoon Data and Search

About IBTrACS Database

This database is a web-friendly format of International Best Track Archive for Climate Stewardship (IBTrACS), a global best track data archive curated by NOAA dating back to 1842.

Updated: 2021-12-06